sensor_id;sensor_type;location;lat;lon;timestamp;temperature;humidity
57566;DHT22;63999;43.882;-0.310;2023-07-20T00:01:13;22.30;68.30
57566;DHT22;63999;43.882;-0.310;2023-07-20T00:03:45;22.30;68.20
57566;DHT22;63999;43.882;-0.310;2023-07-20T00:06:14;22.30;68.20
57566;DHT22;63999;43.882;-0.310;2023-07-20T00:08:40;22.30;68.30
57566;DHT22;63999;43.882;-0.310;2023-07-20T00:11:06;22.30;68.20
57566;DHT22;63999;43.882;-0.310;2023-07-20T00:13:32;22.20;68.20
57566;DHT22;63999;43.882;-0.310;2023-07-20T00:16:03;22.20;68.00
57566;DHT22;63999;43.882;-0.310;2023-07-20T00:18:32;22.20;68.20
57566;DHT22;63999;43.882;-0.310;2023-07-20T00:21:03;22.20;68.10
57566;DHT22;63999;43.882;-0.310;2023-07-20T00:23:34;22.10;68.20
57566;DHT22;63999;43.882;-0.310;2023-07-20T00:26:05;22.10;68.20
57566;DHT22;63999;43.882;-0.310;2023-07-20T00:28:34;22.10;68.20
57566;DHT22;63999;43.882;-0.310;2023-07-20T00:31:03;22.10;68.10
57566;DHT22;63999;43.882;-0.310;2023-07-20T00:33:32;22.10;68.00
57566;DHT22;63999;43.882;-0.310;2023-07-20T00:36:04;22.00;68.10
57566;DHT22;63999;43.882;-0.310;2023-07-20T00:38:35;22.00;68.00
57566;DHT22;63999;43.882;-0.310;2023-07-20T00:41:04;22.00;68.10
57566;DHT22;63999;43.882;-0.310;2023-07-20T00:43:30;22.00;68.00
57566;DHT22;63999;43.882;-0.310;2023-07-20T00:45:56;22.00;68.00
57566;DHT22;63999;43.882;-0.310;2023-07-20T00:48:25;21.90;68.00
57566;DHT22;63999;43.882;-0.310;2023-07-20T00:50:58;21.90;68.00
57566;DHT22;63999;43.882;-0.310;2023-07-20T00:53:26;21.90;68.00
57566;DHT22;63999;43.882;-0.310;2023-07-20T00:55:58;21.90;68.00
57566;DHT22;63999;43.882;-0.310;2023-07-20T00:58:27;21.80;68.20
57566;DHT22;63999;43.882;-0.310;2023-07-20T01:00:53;21.70;68.00
57566;DHT22;63999;43.882;-0.310;2023-07-20T01:03:20;21.70;68.10
57566;DHT22;63999;43.882;-0.310;2023-07-20T01:06:01;21.70;68.00
57566;DHT22;63999;43.882;-0.310;2023-07-20T01:08:45;21.70;68.20
57566;DHT22;63999;43.882;-0.310;2023-07-20T01:13:57;21.60;68.10
57566;DHT22;63999;43.882;-0.310;2023-07-20T01:16:27;21.60;68.00
57566;DHT22;63999;43.882;-0.310;2023-07-20T01:18:54;21.60;67.90
57566;DHT22;63999;43.882;-0.310;2023-07-20T01:21:35;21.50;68.00
57566;DHT22;63999;43.882;-0.310;2023-07-20T01:24:21;21.50;67.90
57566;DHT22;63999;43.882;-0.310;2023-07-20T01:32:45;21.50;68.00
57566;DHT22;63999;43.882;-0.310;2023-07-20T01:35:13;21.50;67.90
57566;DHT22;63999;43.882;-0.310;2023-07-20T01:37:49;21.50;67.90
57566;DHT22;63999;43.882;-0.310;2023-07-20T01:40:19;21.40;67.90
57566;DHT22;63999;43.882;-0.310;2023-07-20T01:42:51;21.40;67.90
57566;DHT22;63999;43.882;-0.310;2023-07-20T01:45:24;21.30;67.90
57566;DHT22;63999;43.882;-0.310;2023-07-20T01:47:52;21.30;68.00
57566;DHT22;63999;43.882;-0.310;2023-07-20T01:50:21;21.30;67.90
57566;DHT22;63999;43.882;-0.310;2023-07-20T01:52:47;21.30;67.90
57566;DHT22;63999;43.882;-0.310;2023-07-20T01:55:13;21.30;68.00
57566;DHT22;63999;43.882;-0.310;2023-07-20T01:57:48;21.20;67.90
57566;DHT22;63999;43.882;-0.310;2023-07-20T02:00:16;21.20;67.90
57566;DHT22;63999;43.882;-0.310;2023-07-20T02:02:44;21.10;67.90
57566;DHT22;63999;43.882;-0.310;2023-07-20T02:05:13;21.10;67.90
57566;DHT22;63999;43.882;-0.310;2023-07-20T02:07:42;21.10;67.90
57566;DHT22;63999;43.882;-0.310;2023-07-20T02:10:11;21.10;67.90
57566;DHT22;63999;43.882;-0.310;2023-07-20T02:12:39;21.10;67.90
57566;DHT22;63999;43.882;-0.310;2023-07-20T02:15:08;21.10;67.90
57566;DHT22;63999;43.882;-0.310;2023-07-20T02:17:35;21.10;67.90
57566;DHT22;63999;43.882;-0.310;2023-07-20T02:20:04;21.10;67.80
57566;DHT22;63999;43.882;-0.310;2023-07-20T02:22:30;21.00;67.80
57566;DHT22;63999;43.882;-0.310;2023-07-20T02:24:59;21.00;67.90
57566;DHT22;63999;43.882;-0.310;2023-07-20T02:27:27;21.00;67.80
57566;DHT22;63999;43.882;-0.310;2023-07-20T02:29:59;20.90;67.80
57566;DHT22;63999;43.882;-0.310;2023-07-20T02:32:25;20.90;67.80
57566;DHT22;63999;43.882;-0.310;2023-07-20T02:34:51;20.90;67.80
57566;DHT22;63999;43.882;-0.310;2023-07-20T02:37:18;20.90;67.80
57566;DHT22;63999;43.882;-0.310;2023-07-20T02:39:46;20.80;67.80
57566;DHT22;63999;43.882;-0.310;2023-07-20T02:42:12;20.80;67.70
57566;DHT22;63999;43.882;-0.310;2023-07-20T02:44:43;20.80;67.80
57566;DHT22;63999;43.882;-0.310;2023-07-20T02:47:14;20.80;67.80
57566;DHT22;63999;43.882;-0.310;2023-07-20T02:49:40;20.80;67.80
57566;DHT22;63999;43.882;-0.310;2023-07-20T02:52:12;20.70;67.80
57566;DHT22;63999;43.882;-0.310;2023-07-20T02:54:41;20.70;67.80
57566;DHT22;63999;43.882;-0.310;2023-07-20T02:57:07;20.70;67.80
57566;DHT22;63999;43.882;-0.310;2023-07-20T02:59:40;20.60;67.80
57566;DHT22;63999;43.882;-0.310;2023-07-20T03:02:09;20.60;67.80
57566;DHT22;63999;43.882;-0.310;2023-07-20T03:04:41;20.60;67.80
57566;DHT22;63999;43.882;-0.310;2023-07-20T03:07:10;20.60;67.80
57566;DHT22;63999;43.882;-0.310;2023-07-20T03:09:36;20.60;67.70
57566;DHT22;63999;43.882;-0.310;2023-07-20T03:12:01;20.60;67.70
57566;DHT22;63999;43.882;-0.310;2023-07-20T03:14:30;20.60;67.70
57566;DHT22;63999;43.882;-0.310;2023-07-20T03:16:55;20.60;67.60
57566;DHT22;63999;43.882;-0.310;2023-07-20T03:19:24;20.50;67.60
57566;DHT22;63999;43.882;-0.310;2023-07-20T03:21:53;20.50;67.70
57566;DHT22;63999;43.882;-0.310;2023-07-20T03:24:22;20.50;67.60
57566;DHT22;63999;43.882;-0.310;2023-07-20T03:26:53;20.50;67.50
57566;DHT22;63999;43.882;-0.310;2023-07-20T03:29:25;20.50;67.60
57566;DHT22;63999;43.882;-0.310;2023-07-20T03:31:57;20.50;67.70
57566;DHT22;63999;43.882;-0.310;2023-07-20T03:34:27;20.50;67.60
57566;DHT22;63999;43.882;-0.310;2023-07-20T03:36:56;20.40;67.70
57566;DHT22;63999;43.882;-0.310;2023-07-20T03:39:25;20.40;67.70
57566;DHT22;63999;43.882;-0.310;2023-07-20T03:41:57;20.30;67.70
57566;DHT22;63999;43.882;-0.310;2023-07-20T03:44:28;20.30;67.80
57566;DHT22;63999;43.882;-0.310;2023-07-20T03:46:55;20.30;67.70
57566;DHT22;63999;43.882;-0.310;2023-07-20T03:49:20;20.30;67.70
57566;DHT22;63999;43.882;-0.310;2023-07-20T03:51:52;20.30;67.70
57566;DHT22;63999;43.882;-0.310;2023-07-20T03:54:18;20.30;67.70
57566;DHT22;63999;43.882;-0.310;2023-07-20T03:56:44;20.30;67.60
57566;DHT22;63999;43.882;-0.310;2023-07-20T03:59:13;20.30;67.60
57566;DHT22;63999;43.882;-0.310;2023-07-20T04:01:47;20.30;67.40
57566;DHT22;63999;43.882;-0.310;2023-07-20T04:04:16;20.20;67.40
57566;DHT22;63999;43.882;-0.310;2023-07-20T04:06:44;20.20;67.30
57566;DHT22;63999;43.882;-0.310;2023-07-20T04:09:16;20.20;67.30
57566;DHT22;63999;43.882;-0.310;2023-07-20T04:11:44;20.20;67.10
57566;DHT22;63999;43.882;-0.310;2023-07-20T04:14:10;20.20;67.30
57566;DHT22;63999;43.882;-0.310;2023-07-20T04:16:42;20.20;67.50
57566;DHT22;63999;43.882;-0.310;2023-07-20T04:19:07;20.30;67.50
57566;DHT22;63999;43.882;-0.310;2023-07-20T04:21:40;20.30;67.50
57566;DHT22;63999;43.882;-0.310;2023-07-20T04:24:14;20.30;67.60
57566;DHT22;63999;43.882;-0.310;2023-07-20T04:26:40;20.30;67.80
57566;DHT22;63999;43.882;-0.310;2023-07-20T04:29:09;20.30;67.90
57566;DHT22;63999;43.882;-0.310;2023-07-20T04:31:38;20.30;68.00
57566;DHT22;63999;43.882;-0.310;2023-07-20T04:34:06;20.30;68.00
57566;DHT22;63999;43.882;-0.310;2023-07-20T04:36:36;20.30;68.00
57566;DHT22;63999;43.882;-0.310;2023-07-20T04:39:04;20.30;68.00
57566;DHT22;63999;43.882;-0.310;2023-07-20T04:41:37;20.30;68.10
57566;DHT22;63999;43.882;-0.310;2023-07-20T04:44:12;20.30;68.20
57566;DHT22;63999;43.882;-0.310;2023-07-20T04:46:42;20.30;68.40
57566;DHT22;63999;43.882;-0.310;2023-07-20T04:49:14;20.30;68.50
57566;DHT22;63999;43.882;-0.310;2023-07-20T04:51:43;20.30;68.50
57566;DHT22;63999;43.882;-0.310;2023-07-20T04:54:12;20.30;68.50
57566;DHT22;63999;43.882;-0.310;2023-07-20T04:56:39;20.30;68.70
57566;DHT22;63999;43.882;-0.310;2023-07-20T04:59:10;20.30;68.70
57566;DHT22;63999;43.882;-0.310;2023-07-20T05:01:39;20.30;68.70
57566;DHT22;63999;43.882;-0.310;2023-07-20T05:04:14;20.30;68.70
57566;DHT22;63999;43.882;-0.310;2023-07-20T05:06:39;20.30;68.70
57566;DHT22;63999;43.882;-0.310;2023-07-20T05:09:08;20.30;68.90
57566;DHT22;63999;43.882;-0.310;2023-07-20T05:11:37;20.30;68.90
57566;DHT22;63999;43.882;-0.310;2023-07-20T05:14:03;20.30;69.00
57566;DHT22;63999;43.882;-0.310;2023-07-20T05:16:37;20.20;69.00
57566;DHT22;63999;43.882;-0.310;2023-07-20T05:19:08;20.20;69.00
57566;DHT22;63999;43.882;-0.310;2023-07-20T05:21:37;20.30;69.00
57566;DHT22;63999;43.882;-0.310;2023-07-20T05:24:03;20.30;69.00
57566;DHT22;63999;43.882;-0.310;2023-07-20T05:26:30;20.30;69.10
57566;DHT22;63999;43.882;-0.310;2023-07-20T05:28:58;20.20;69.10
57566;DHT22;63999;43.882;-0.310;2023-07-20T05:31:26;20.20;69.30
57566;DHT22;63999;43.882;-0.310;2023-07-20T05:33:59;20.30;69.20
57566;DHT22;63999;43.882;-0.310;2023-07-20T05:36:25;20.30;69.20
57566;DHT22;63999;43.882;-0.310;2023-07-20T05:38:53;20.20;69.20
57566;DHT22;63999;43.882;-0.310;2023-07-20T05:41:25;20.20;69.30
57566;DHT22;63999;43.882;-0.310;2023-07-20T05:43:54;20.10;69.40
57566;DHT22;63999;43.882;-0.310;2023-07-20T05:46:25;20.10;69.40
57566;DHT22;63999;43.882;-0.310;2023-07-20T05:48:54;20.10;69.40
57566;DHT22;63999;43.882;-0.310;2023-07-20T05:51:25;20.10;69.50
57566;DHT22;63999;43.882;-0.310;2023-07-20T05:53:57;20.10;69.50
57566;DHT22;63999;43.882;-0.310;2023-07-20T05:56:23;20.10;69.50
57566;DHT22;63999;43.882;-0.310;2023-07-20T05:58:49;20.10;69.60
57566;DHT22;63999;43.882;-0.310;2023-07-20T06:01:15;20.10;69.60
57566;DHT22;63999;43.882;-0.310;2023-07-20T06:03:45;20.10;69.60
57566;DHT22;63999;43.882;-0.310;2023-07-20T06:06:14;20.10;69.60
57566;DHT22;63999;43.882;-0.310;2023-07-20T06:08:43;20.10;69.50
57566;DHT22;63999;43.882;-0.310;2023-07-20T06:11:15;20.10;69.50
57566;DHT22;63999;43.882;-0.310;2023-07-20T06:13:42;20.10;69.50
57566;DHT22;63999;43.882;-0.310;2023-07-20T06:16:11;20.10;69.70
57566;DHT22;63999;43.882;-0.310;2023-07-20T06:18:40;20.10;69.70
57566;DHT22;63999;43.882;-0.310;2023-07-20T06:21:16;20.10;69.90
57566;DHT22;63999;43.882;-0.310;2023-07-20T06:23:47;20.10;69.80
57566;DHT22;63999;43.882;-0.310;2023-07-20T06:26:16;20.00;69.80
57566;DHT22;63999;43.882;-0.310;2023-07-20T06:28:45;20.10;69.80
57566;DHT22;63999;43.882;-0.310;2023-07-20T06:31:11;20.00;70.20
57566;DHT22;63999;43.882;-0.310;2023-07-20T06:33:43;20.10;70.10
57566;DHT22;63999;43.882;-0.310;2023-07-20T06:36:09;20.10;70.00
57566;DHT22;63999;43.882;-0.310;2023-07-20T06:38:40;20.10;69.80
57566;DHT22;63999;43.882;-0.310;2023-07-20T06:41:06;20.10;70.20
57566;DHT22;63999;43.882;-0.310;2023-07-20T06:43:35;20.10;70.00
57566;DHT22;63999;43.882;-0.310;2023-07-20T06:46:01;20.10;70.10
57566;DHT22;63999;43.882;-0.310;2023-07-20T06:48:30;20.00;70.20
57566;DHT22;63999;43.882;-0.310;2023-07-20T06:50:56;20.00;70.20
57566;DHT22;63999;43.882;-0.310;2023-07-20T06:53:24;20.00;70.00
57566;DHT22;63999;43.882;-0.310;2023-07-20T06:55:51;20.00;69.90
57566;DHT22;63999;43.882;-0.310;2023-07-20T06:58:25;20.00;70.10
57566;DHT22;63999;43.882;-0.310;2023-07-20T07:00:51;20.10;70.10
57566;DHT22;63999;43.882;-0.310;2023-07-20T07:03:20;20.10;70.30
57566;DHT22;63999;43.882;-0.310;2023-07-20T07:05:55;20.10;70.70
57566;DHT22;63999;43.882;-0.310;2023-07-20T07:08:24;20.10;70.40
57566;DHT22;63999;43.882;-0.310;2023-07-20T07:10:53;20.10;70.70
57566;DHT22;63999;43.882;-0.310;2023-07-20T07:13:19;20.20;71.40
57566;DHT22;63999;43.882;-0.310;2023-07-20T07:15:47;20.30;71.30
57566;DHT22;63999;43.882;-0.310;2023-07-20T07:18:16;20.30;70.40
57566;DHT22;63999;43.882;-0.310;2023-07-20T07:20:53;20.30;70.60
57566;DHT22;63999;43.882;-0.310;2023-07-20T07:23:22;20.30;70.80
57566;DHT22;63999;43.882;-0.310;2023-07-20T07:25:51;20.20;72.00
57566;DHT22;63999;43.882;-0.310;2023-07-20T07:28:29;20.30;71.20
57566;DHT22;63999;43.882;-0.310;2023-07-20T07:30:58;20.20;71.00
57566;DHT22;63999;43.882;-0.310;2023-07-20T07:33:27;20.30;71.70
57566;DHT22;63999;43.882;-0.310;2023-07-20T07:35:56;20.30;70.90
57566;DHT22;63999;43.882;-0.310;2023-07-20T07:38:24;20.20;71.80
57566;DHT22;63999;43.882;-0.310;2023-07-20T07:40:57;20.30;73.30
57566;DHT22;63999;43.882;-0.310;2023-07-20T07:43:23;20.50;72.70
57566;DHT22;63999;43.882;-0.310;2023-07-20T07:45:54;20.60;73.20
57566;DHT22;63999;43.882;-0.310;2023-07-20T07:48:23;20.60;73.40
57566;DHT22;63999;43.882;-0.310;2023-07-20T07:50:51;20.70;72.40
57566;DHT22;63999;43.882;-0.310;2023-07-20T07:53:20;20.60;73.20
57566;DHT22;63999;43.882;-0.310;2023-07-20T07:55:52;20.60;71.90
57566;DHT22;63999;43.882;-0.310;2023-07-20T07:58:18;20.50;71.70
57566;DHT22;63999;43.882;-0.310;2023-07-20T08:00:49;20.50;71.70
57566;DHT22;63999;43.882;-0.310;2023-07-20T08:03:17;20.50;72.30
57566;DHT22;63999;43.882;-0.310;2023-07-20T08:05:49;20.50;72.10
57566;DHT22;63999;43.882;-0.310;2023-07-20T08:08:21;20.50;72.70
57566;DHT22;63999;43.882;-0.310;2023-07-20T08:10:53;20.50;73.00
57566;DHT22;63999;43.882;-0.310;2023-07-20T08:13:23;20.50;72.60
57566;DHT22;63999;43.882;-0.310;2023-07-20T08:15:54;20.60;73.70
57566;DHT22;63999;43.882;-0.310;2023-07-20T08:18:23;20.60;73.60
57566;DHT22;63999;43.882;-0.310;2023-07-20T08:20:52;20.70;74.00
57566;DHT22;63999;43.882;-0.310;2023-07-20T08:23:23;20.60;73.40
57566;DHT22;63999;43.882;-0.310;2023-07-20T08:25:55;20.60;74.00
57566;DHT22;63999;43.882;-0.310;2023-07-20T08:28:27;20.50;72.90
57566;DHT22;63999;43.882;-0.310;2023-07-20T08:30:54;20.50;72.80
57566;DHT22;63999;43.882;-0.310;2023-07-20T08:33:21;20.50;72.10
57566;DHT22;63999;43.882;-0.310;2023-07-20T08:35:47;20.50;71.90
57566;DHT22;63999;43.882;-0.310;2023-07-20T08:38:16;20.50;72.80
57566;DHT22;63999;43.882;-0.310;2023-07-20T08:40:46;20.50;72.40
57566;DHT22;63999;43.882;-0.310;2023-07-20T08:43:19;20.50;72.30
57566;DHT22;63999;43.882;-0.310;2023-07-20T08:45:45;20.60;72.90
57566;DHT22;63999;43.882;-0.310;2023-07-20T08:48:15;20.60;72.90
57566;DHT22;63999;43.882;-0.310;2023-07-20T08:50:43;20.60;72.50
57566;DHT22;63999;43.882;-0.310;2023-07-20T08:53:10;20.60;72.90
57566;DHT22;63999;43.882;-0.310;2023-07-20T08:55:44;20.50;72.50
57566;DHT22;63999;43.882;-0.310;2023-07-20T08:58:15;20.60;73.20
57566;DHT22;63999;43.882;-0.310;2023-07-20T09:00:48;20.50;72.80
57566;DHT22;63999;43.882;-0.310;2023-07-20T09:03:22;20.60;73.20
57566;DHT22;63999;43.882;-0.310;2023-07-20T09:05:54;20.60;73.70
57566;DHT22;63999;43.882;-0.310;2023-07-20T09:08:20;20.70;73.50
57566;DHT22;63999;43.882;-0.310;2023-07-20T09:10:50;20.70;73.60
57566;DHT22;63999;43.882;-0.310;2023-07-20T09:13:19;20.70;73.10
57566;DHT22;63999;43.882;-0.310;2023-07-20T09:15:46;20.60;73.30
57566;DHT22;63999;43.882;-0.310;2023-07-20T09:18:24;20.60;72.80
57566;DHT22;63999;43.882;-0.310;2023-07-20T09:20:57;20.60;73.70
57566;DHT22;63999;43.882;-0.310;2023-07-20T09:26:09;20.70;72.50
57566;DHT22;63999;43.882;-0.310;2023-07-20T09:28:58;20.70;73.80
57566;DHT22;63999;43.882;-0.310;2023-07-20T09:31:26;20.70;73.80
57566;DHT22;63999;43.882;-0.310;2023-07-20T09:33:57;20.70;72.90
57566;DHT22;63999;43.882;-0.310;2023-07-20T09:36:32;20.60;72.40
57566;DHT22;63999;43.882;-0.310;2023-07-20T09:39:01;20.60;72.40
57566;DHT22;63999;43.882;-0.310;2023-07-20T09:41:39;20.70;74.00
57566;DHT22;63999;43.882;-0.310;2023-07-20T09:44:09;20.70;72.50
57566;DHT22;63999;43.882;-0.310;2023-07-20T09:46:46;20.70;72.60
57566;DHT22;63999;43.882;-0.310;2023-07-20T09:49:17;20.70;73.80
57566;DHT22;63999;43.882;-0.310;2023-07-20T09:51:51;20.80;72.50
57566;DHT22;63999;43.882;-0.310;2023-07-20T09:54:25;20.80;74.00
57566;DHT22;63999;43.882;-0.310;2023-07-20T09:56:56;20.90;73.50
57566;DHT22;63999;43.882;-0.310;2023-07-20T09:59:25;20.90;73.50
57566;DHT22;63999;43.882;-0.310;2023-07-20T10:01:58;20.90;73.10
57566;DHT22;63999;43.882;-0.310;2023-07-20T10:04:26;20.80;73.30
57566;DHT22;63999;43.882;-0.310;2023-07-20T10:06:58;20.80;73.40
57566;DHT22;63999;43.882;-0.310;2023-07-20T10:09:27;20.90;73.10
57566;DHT22;63999;43.882;-0.310;2023-07-20T10:11:59;20.90;74.20
57566;DHT22;63999;43.882;-0.310;2023-07-20T10:14:31;21.00;73.90
57566;DHT22;63999;43.882;-0.310;2023-07-20T10:17:01;21.00;73.30
57566;DHT22;63999;43.882;-0.310;2023-07-20T10:19:47;21.00;73.60
57566;DHT22;63999;43.882;-0.310;2023-07-20T10:22:22;21.00;73.60
57566;DHT22;63999;43.882;-0.310;2023-07-20T10:24:54;21.00;74.00
57566;DHT22;63999;43.882;-0.310;2023-07-20T10:27:23;21.00;73.70
57566;DHT22;63999;43.882;-0.310;2023-07-20T10:29:51;21.00;74.10
57566;DHT22;63999;43.882;-0.310;2023-07-20T10:32:21;21.10;73.70
57566;DHT22;63999;43.882;-0.310;2023-07-20T10:34:56;21.10;73.90
57566;DHT22;63999;43.882;-0.310;2023-07-20T10:37:47;21.10;74.10
57566;DHT22;63999;43.882;-0.310;2023-07-20T10:40:38;21.10;75.00
57566;DHT22;63999;43.882;-0.310;2023-07-20T10:43:19;21.10;74.00
57566;DHT22;63999;43.882;-0.310;2023-07-20T10:45:52;21.10;73.90
57566;DHT22;63999;43.882;-0.310;2023-07-20T10:48:27;21.10;73.90
57566;DHT22;63999;43.882;-0.310;2023-07-20T10:51:20;21.20;74.70
57566;DHT22;63999;43.882;-0.310;2023-07-20T10:53:48;21.30;74.20
57566;DHT22;63999;43.882;-0.310;2023-07-20T10:56:26;21.30;74.00
57566;DHT22;63999;43.882;-0.310;2023-07-20T10:59:17;21.30;74.20
57566;DHT22;63999;43.882;-0.310;2023-07-20T11:01:56;21.30;74.60
57566;DHT22;63999;43.882;-0.310;2023-07-20T11:04:39;21.30;73.90
57566;DHT22;63999;43.882;-0.310;2023-07-20T11:07:06;21.30;74.10
57566;DHT22;63999;43.882;-0.310;2023-07-20T11:09:38;21.30;73.90
57566;DHT22;63999;43.882;-0.310;2023-07-20T11:14:56;21.30;74.00
57566;DHT22;63999;43.882;-0.310;2023-07-20T11:17:34;21.40;74.00
57566;DHT22;63999;43.882;-0.310;2023-07-20T11:20:04;21.40;74.10
57566;DHT22;63999;43.882;-0.310;2023-07-20T11:22:34;21.40;73.90
57566;DHT22;63999;43.882;-0.310;2023-07-20T11:25:00;21.40;74.10
57566;DHT22;63999;43.882;-0.310;2023-07-20T11:27:26;21.40;74.30
57566;DHT22;63999;43.882;-0.310;2023-07-20T11:29:57;21.40;74.20
57566;DHT22;63999;43.882;-0.310;2023-07-20T11:32:24;21.50;74.10
57566;DHT22;63999;43.882;-0.310;2023-07-20T11:34:50;21.40;74.10
57566;DHT22;63999;43.882;-0.310;2023-07-20T11:37:19;21.40;74.10
57566;DHT22;63999;43.882;-0.310;2023-07-20T11:39:57;21.40;74.30
57566;DHT22;63999;43.882;-0.310;2023-07-20T11:42:26;21.50;74.30
57566;DHT22;63999;43.882;-0.310;2023-07-20T11:44:57;21.50;74.10
57566;DHT22;63999;43.882;-0.310;2023-07-20T11:47:30;21.50;74.10
57566;DHT22;63999;43.882;-0.310;2023-07-20T11:50:03;21.50;74.40
57566;DHT22;63999;43.882;-0.310;2023-07-20T11:52:33;21.60;76.20
57566;DHT22;63999;43.882;-0.310;2023-07-20T11:55:04;21.70;74.60
57566;DHT22;63999;43.882;-0.310;2023-07-20T11:57:37;21.70;74.10
57566;DHT22;63999;43.882;-0.310;2023-07-20T12:00:09;21.70;74.40
57566;DHT22;63999;43.882;-0.310;2023-07-20T12:02:37;21.60;74.20
57566;DHT22;63999;43.882;-0.310;2023-07-20T12:05:09;21.70;74.50
57566;DHT22;63999;43.882;-0.310;2023-07-20T12:07:42;21.70;74.40
57566;DHT22;63999;43.882;-0.310;2023-07-20T12:10:25;21.70;74.10
57566;DHT22;63999;43.882;-0.310;2023-07-20T12:13:04;21.70;74.60
57566;DHT22;63999;43.882;-0.310;2023-07-20T12:15:33;21.70;74.50
57566;DHT22;63999;43.882;-0.310;2023-07-20T12:18:00;21.70;74.30
57566;DHT22;63999;43.882;-0.310;2023-07-20T12:23:02;21.70;74.70
57566;DHT22;63999;43.882;-0.310;2023-07-20T12:25:40;21.80;74.20
57566;DHT22;63999;43.882;-0.310;2023-07-20T12:28:11;21.90;74.70
57566;DHT22;63999;43.882;-0.310;2023-07-20T12:30:41;21.90;75.00
57566;DHT22;63999;43.882;-0.310;2023-07-20T12:33:09;21.90;74.30
57566;DHT22;63999;43.882;-0.310;2023-07-20T12:35:41;21.90;74.40
57566;DHT22;63999;43.882;-0.310;2023-07-20T12:38:11;21.90;74.80
57566;DHT22;63999;43.882;-0.310;2023-07-20T12:40:39;21.90;74.70
57566;DHT22;63999;43.882;-0.310;2023-07-20T12:43:06;21.90;74.60
57566;DHT22;63999;43.882;-0.310;2023-07-20T12:45:40;22.00;74.60
57566;DHT22;63999;43.882;-0.310;2023-07-20T12:48:09;22.00;74.10
57566;DHT22;63999;43.882;-0.310;2023-07-20T12:50:35;22.00;75.10
57566;DHT22;63999;43.882;-0.310;2023-07-20T12:53:09;22.00;74.10
57566;DHT22;63999;43.882;-0.310;2023-07-20T12:55:38;22.00;74.40
57566;DHT22;63999;43.882;-0.310;2023-07-20T12:58:11;22.00;74.20
57566;DHT22;63999;43.882;-0.310;2023-07-20T13:00:46;22.00;74.70
57566;DHT22;63999;43.882;-0.310;2023-07-20T13:03:15;22.10;74.80
57566;DHT22;63999;43.882;-0.310;2023-07-20T13:05:45;22.10;74.70
57566;DHT22;63999;43.882;-0.310;2023-07-20T13:08:17;22.20;75.10
57566;DHT22;63999;43.882;-0.310;2023-07-20T13:10:45;22.30;75.90
57566;DHT22;63999;43.882;-0.310;2023-07-20T13:13:12;22.40;74.20
57566;DHT22;63999;43.882;-0.310;2023-07-20T13:15:47;22.40;74.90
57566;DHT22;63999;43.882;-0.310;2023-07-20T13:18:18;22.40;74.30
57566;DHT22;63999;43.882;-0.310;2023-07-20T13:20:44;22.40;75.70
57566;DHT22;63999;43.882;-0.310;2023-07-20T13:23:19;22.50;74.90
57566;DHT22;63999;43.882;-0.310;2023-07-20T13:25:45;22.40;74.40
57566;DHT22;63999;43.882;-0.310;2023-07-20T13:28:16;22.40;75.10
57566;DHT22;63999;43.882;-0.310;2023-07-20T13:30:45;22.40;74.20
57566;DHT22;63999;43.882;-0.310;2023-07-20T13:33:13;22.30;74.30
57566;DHT22;63999;43.882;-0.310;2023-07-20T13:35:39;22.30;74.80
57566;DHT22;63999;43.882;-0.310;2023-07-20T13:38:05;22.30;74.30
57566;DHT22;63999;43.882;-0.310;2023-07-20T13:40:34;22.30;74.30
57566;DHT22;63999;43.882;-0.310;2023-07-20T13:43:03;22.40;74.70
57566;DHT22;63999;43.882;-0.310;2023-07-20T13:45:35;22.40;74.50
57566;DHT22;63999;43.882;-0.310;2023-07-20T13:48:01;22.40;74.70
57566;DHT22;63999;43.882;-0.310;2023-07-20T13:50:27;22.40;73.90
57566;DHT22;63999;43.882;-0.310;2023-07-20T13:52:59;22.40;74.30
57566;DHT22;63999;43.882;-0.310;2023-07-20T13:55:28;22.40;74.50
57566;DHT22;63999;43.882;-0.310;2023-07-20T13:57:59;22.40;74.00
57566;DHT22;63999;43.882;-0.310;2023-07-20T14:00:27;22.50;74.60
57566;DHT22;63999;43.882;-0.310;2023-07-20T14:02:58;22.50;75.00
57566;DHT22;63999;43.882;-0.310;2023-07-20T14:05:30;22.50;74.70
57566;DHT22;63999;43.882;-0.310;2023-07-20T14:07:56;22.50;75.00
57566;DHT22;63999;43.882;-0.310;2023-07-20T14:10:27;22.50;74.10
57566;DHT22;63999;43.882;-0.310;2023-07-20T14:12:56;22.50;74.50
57566;DHT22;63999;43.882;-0.310;2023-07-20T14:15:24;22.50;73.90
57566;DHT22;63999;43.882;-0.310;2023-07-20T14:17:53;22.50;74.10
57566;DHT22;63999;43.882;-0.310;2023-07-20T14:20:22;22.50;74.00
57566;DHT22;63999;43.882;-0.310;2023-07-20T14:22:48;22.60;74.40
57566;DHT22;63999;43.882;-0.310;2023-07-20T14:25:19;22.60;74.30
57566;DHT22;63999;43.882;-0.310;2023-07-20T14:27:53;22.60;74.30
57566;DHT22;63999;43.882;-0.310;2023-07-20T14:30:19;22.60;74.30
57566;DHT22;63999;43.882;-0.310;2023-07-20T14:32:45;22.60;74.60
57566;DHT22;63999;43.882;-0.310;2023-07-20T14:35:19;22.60;74.30
57566;DHT22;63999;43.882;-0.310;2023-07-20T14:37:51;22.60;74.20
57566;DHT22;63999;43.882;-0.310;2023-07-20T14:40:18;22.60;74.20
57566;DHT22;63999;43.882;-0.310;2023-07-20T14:42:44;22.60;74.10
57566;DHT22;63999;43.882;-0.310;2023-07-20T14:45:10;22.60;74.00
57566;DHT22;63999;43.882;-0.310;2023-07-20T14:47:39;22.60;74.20
57566;DHT22;63999;43.882;-0.310;2023-07-20T14:50:13;22.60;74.30
57566;DHT22;63999;43.882;-0.310;2023-07-20T14:52:46;22.70;74.30
57566;DHT22;63999;43.882;-0.310;2023-07-20T14:55:12;22.60;74.30
57566;DHT22;63999;43.882;-0.310;2023-07-20T14:57:39;22.70;74.20
57566;DHT22;63999;43.882;-0.310;2023-07-20T15:00:13;22.70;74.60
57566;DHT22;63999;43.882;-0.310;2023-07-20T15:02:40;22.80;74.50
57566;DHT22;63999;43.882;-0.310;2023-07-20T15:05:25;22.70;74.20
57566;DHT22;63999;43.882;-0.310;2023-07-20T15:07:59;22.80;75.00
57566;DHT22;63999;43.882;-0.310;2023-07-20T15:10:29;22.70;74.20
57566;DHT22;63999;43.882;-0.310;2023-07-20T15:12:57;22.80;74.10
57566;DHT22;63999;43.882;-0.310;2023-07-20T15:15:23;22.70;74.30
57566;DHT22;63999;43.882;-0.310;2023-07-20T15:17:52;22.70;74.60
57566;DHT22;63999;43.882;-0.310;2023-07-20T15:20:25;22.80;74.00
57566;DHT22;63999;43.882;-0.310;2023-07-20T15:22:57;22.80;74.50
57566;DHT22;63999;43.882;-0.310;2023-07-20T15:25:26;22.80;74.10
57566;DHT22;63999;43.882;-0.310;2023-07-20T15:27:57;22.80;74.60
57566;DHT22;63999;43.882;-0.310;2023-07-20T15:30:28;22.80;74.80
57566;DHT22;63999;43.882;-0.310;2023-07-20T15:32:55;22.90;74.60
57566;DHT22;63999;43.882;-0.310;2023-07-20T15:35:24;22.90;74.50
57566;DHT22;63999;43.882;-0.310;2023-07-20T15:37:58;23.00;74.60
57566;DHT22;63999;43.882;-0.310;2023-07-20T15:40:27;22.90;74.70
57566;DHT22;63999;43.882;-0.310;2023-07-20T15:42:56;22.90;75.20
57566;DHT22;63999;43.882;-0.310;2023-07-20T15:45:28;22.90;74.50
57566;DHT22;63999;43.882;-0.310;2023-07-20T15:47:57;22.90;74.40
57566;DHT22;63999;43.882;-0.310;2023-07-20T15:50:25;22.90;74.10